createdAt,value
2018-07-30T00:00:47.365Z,22.20
2018-07-30T00:01:51.046Z,22.20
2018-07-30T00:02:54.365Z,22.20
2018-07-30T00:03:57.682Z,22.20
2018-07-30T00:05:01.057Z,22.20
2018-07-30T00:06:04.397Z,22.20
2018-07-30T00:07:07.772Z,22.20
2018-07-30T00:08:11.236Z,22.20
2018-07-30T00:09:14.556Z,22.10
2018-07-30T00:10:17.902Z,22.20
2018-07-30T00:11:21.250Z,22.10
2018-07-30T00:12:24.587Z,22.10
2018-07-30T00:13:27.922Z,22.10
2018-07-30T00:14:31.259Z,22.10
2018-07-30T00:15:34.911Z,22.10
2018-07-30T00:16:38.230Z,22.10
2018-07-30T00:17:41.562Z,22.10
2018-07-30T00:19:47.938Z,22.10
2018-07-30T00:20:51.287Z,22.00
2018-07-30T00:21:54.610Z,22.00
2018-07-30T00:22:58.211Z,22.00
2018-07-30T00:24:01.519Z,21.90
2018-07-30T00:25:05.023Z,22.00
2018-07-30T00:26:08.364Z,22.00
2018-07-30T00:27:11.687Z,21.90
2018-07-30T00:28:15.035Z,21.90
2018-07-30T00:29:18.387Z,21.80
2018-07-30T00:30:21.779Z,21.90
2018-07-30T00:31:25.144Z,21.90
2018-07-30T00:32:28.502Z,21.90
2018-07-30T00:33:31.810Z,21.80
2018-07-30T00:34:35.183Z,21.80
2018-07-30T00:35:38.525Z,21.70
2018-07-30T00:36:41.842Z,21.70
2018-07-30T00:37:45.206Z,21.60
2018-07-30T00:38:48.595Z,21.60
2018-07-30T00:39:51.919Z,21.60
2018-07-30T00:40:55.263Z,21.60
2018-07-30T00:41:58.618Z,21.60
2018-07-30T00:43:01.943Z,21.50
2018-07-30T00:44:05.466Z,21.50
2018-07-30T00:45:08.867Z,21.50
2018-07-30T00:46:12.233Z,21.50
2018-07-30T00:47:15.535Z,21.60
2018-07-30T00:48:18.928Z,21.60
2018-07-30T00:49:22.214Z,21.60
2018-07-30T00:50:31.978Z,21.50
2018-07-30T00:51:35.331Z,21.60
2018-07-30T00:52:38.926Z,21.50
2018-07-30T00:53:42.280Z,21.50
2018-07-30T00:54:45.614Z,21.50
2018-07-30T00:55:48.950Z,21.50
2018-07-30T00:56:52.347Z,21.40
2018-07-30T00:57:55.653Z,21.50
2018-07-30T00:58:59.026Z,21.50
2018-07-30T01:00:02.392Z,21.40
2018-07-30T01:01:05.759Z,21.40
2018-07-30T01:02:09.065Z,21.40
2018-07-30T01:03:12.427Z,21.30
2018-07-30T01:04:15.822Z,21.30
2018-07-30T01:05:19.147Z,21.30
2018-07-30T01:06:22.487Z,21.30
2018-07-30T01:07:25.844Z,21.30
2018-07-30T01:08:29.192Z,21.30
2018-07-30T01:09:32.551Z,21.30
2018-07-30T01:10:35.920Z,21.30
2018-07-30T01:11:39.355Z,21.20
2018-07-30T01:12:42.667Z,21.20
2018-07-30T01:13:46.243Z,21.10
2018-07-30T01:14:49.560Z,21.10
2018-07-30T01:15:52.922Z,21.10
2018-07-30T01:16:56.274Z,21.10
2018-07-30T01:17:59.601Z,21.00
2018-07-30T01:19:03.043Z,21.10
2018-07-30T01:20:06.530Z,21.10
2018-07-30T01:21:09.891Z,21.10
2018-07-30T01:22:13.237Z,21.10
2018-07-30T01:23:16.591Z,21.10
2018-07-30T01:24:20.321Z,21.00
2018-07-30T01:25:23.722Z,21.10
2018-07-30T01:26:28.683Z,21.10
2018-07-30T01:27:32.047Z,21.00
2018-07-30T01:28:35.422Z,21.00
2018-07-30T01:29:38.755Z,21.00
2018-07-30T01:30:42.120Z,21.00
2018-07-30T01:31:45.457Z,21.00
2018-07-30T01:32:48.793Z,21.00
2018-07-30T01:33:52.531Z,21.00
2018-07-30T01:34:55.858Z,21.00
2018-07-30T01:35:59.230Z,21.00
2018-07-30T01:37:02.586Z,21.00
2018-07-30T01:38:06.150Z,21.00
2018-07-30T01:39:09.509Z,20.90
2018-07-30T01:40:12.859Z,20.80
2018-07-30T01:41:16.243Z,20.80
2018-07-30T01:42:19.634Z,20.80
2018-07-30T01:43:22.996Z,20.80
2018-07-30T01:44:26.343Z,20.90
2018-07-30T01:45:29.688Z,20.90
2018-07-30T01:46:33.038Z,20.90
2018-07-30T01:47:36.410Z,20.90
2018-07-30T01:48:39.729Z,20.90
2018-07-30T01:49:43.102Z,20.90
2018-07-30T01:50:46.495Z,20.80
2018-07-30T01:51:49.839Z,20.80
2018-07-30T01:52:53.148Z,20.80
2018-07-30T01:53:56.512Z,20.80
2018-07-30T01:54:59.845Z,20.80
2018-07-30T01:56:03.226Z,20.80
2018-07-30T01:57:06.583Z,20.80
2018-07-30T01:58:09.902Z,20.70
2018-07-30T01:59:13.360Z,20.60
2018-07-30T02:00:16.720Z,20.60
2018-07-30T02:01:20.112Z,20.60
2018-07-30T02:02:23.459Z,20.60
2018-07-30T02:03:26.767Z,20.60
2018-07-30T02:04:30.147Z,20.60
2018-07-30T02:05:33.475Z,20.50
2018-07-30T02:06:36.794Z,20.50
2018-07-30T02:07:41.154Z,20.60
2018-07-30T02:08:44.514Z,20.60
2018-07-30T02:09:47.888Z,20.60
2018-07-30T02:10:51.247Z,20.60
2018-07-30T02:11:54.634Z,20.60
2018-07-30T02:12:57.996Z,20.50
2018-07-30T02:14:01.347Z,20.50
2018-07-30T02:15:04.742Z,20.60
2018-07-30T02:16:08.050Z,20.50
2018-07-30T02:17:11.380Z,20.50
2018-07-30T02:18:14.725Z,20.50
2018-07-30T02:19:18.058Z,20.50
2018-07-30T02:20:21.437Z,20.50
2018-07-30T02:21:24.802Z,20.40
2018-07-30T02:22:28.121Z,20.40
2018-07-30T02:23:31.485Z,20.40
2018-07-30T02:24:34.837Z,20.50
2018-07-30T02:25:38.159Z,20.50
2018-07-30T02:26:41.526Z,20.50
2018-07-30T02:27:44.841Z,20.50
2018-07-30T02:28:48.200Z,20.50
2018-07-30T02:29:51.538Z,20.50
2018-07-30T02:30:54.870Z,20.40
2018-07-30T02:31:58.256Z,20.40
2018-07-30T02:33:01.635Z,20.40
2018-07-30T02:34:05.183Z,20.40
2018-07-30T02:35:09.150Z,20.40
2018-07-30T02:36:12.502Z,20.30
2018-07-30T02:37:15.929Z,20.30
2018-07-30T02:38:19.265Z,20.30
2018-07-30T02:39:22.618Z,20.30
2018-07-30T02:40:25.959Z,20.20
2018-07-30T02:41:29.360Z,20.30
2018-07-30T02:42:32.795Z,20.30
2018-07-30T02:43:36.088Z,20.20
2018-07-30T02:44:39.411Z,20.30
2018-07-30T02:45:42.788Z,20.30
2018-07-30T02:46:46.138Z,20.20
2018-07-30T02:47:49.455Z,20.20
2018-07-30T02:48:52.783Z,20.20
2018-07-30T02:49:56.108Z,20.10
2018-07-30T02:50:59.471Z,20.20
2018-07-30T02:52:02.791Z,20.20
2018-07-30T02:53:06.114Z,20.20
2018-07-30T02:54:09.723Z,20.10
2018-07-30T02:55:13.091Z,20.10
2018-07-30T02:56:16.431Z,20.10
2018-07-30T02:57:19.779Z,19.90
2018-07-30T02:58:23.163Z,19.90
2018-07-30T02:59:26.505Z,19.90
2018-07-30T03:00:29.852Z,19.80
2018-07-30T03:01:33.178Z,19.80
2018-07-30T03:02:36.544Z,19.80
2018-07-30T03:03:39.905Z,19.80
2018-07-30T03:04:43.256Z,19.70
2018-07-30T03:05:46.608Z,19.70
2018-07-30T03:06:49.954Z,19.60
2018-07-30T03:07:53.287Z,19.50
2018-07-30T03:08:56.661Z,19.40
2018-07-30T03:09:59.996Z,19.30
2018-07-30T03:11:03.355Z,19.30
2018-07-30T03:12:06.755Z,19.40
2018-07-30T03:13:10.278Z,19.50
2018-07-30T03:14:13.652Z,19.50
2018-07-30T03:15:16.970Z,19.50
2018-07-30T03:16:20.314Z,19.50
2018-07-30T03:17:23.674Z,19.70
2018-07-30T03:18:27.015Z,19.70
2018-07-30T03:19:30.376Z,19.70
2018-07-30T03:20:33.696Z,19.80
2018-07-30T03:21:37.058Z,19.80
2018-07-30T03:22:40.410Z,19.80
2018-07-30T03:23:43.819Z,19.80
2018-07-30T03:24:47.170Z,19.70
2018-07-30T03:25:50.522Z,19.80
2018-07-30T03:26:53.838Z,19.90
2018-07-30T03:27:57.244Z,19.90
2018-07-30T03:29:00.616Z,19.90
2018-07-30T03:30:04.838Z,19.80
2018-07-30T03:31:08.240Z,19.80
2018-07-30T03:32:11.592Z,19.80
2018-07-30T03:33:14.920Z,19.80
2018-07-30T03:34:18.308Z,19.80
2018-07-30T03:35:21.646Z,19.80
2018-07-30T03:36:24.973Z,19.80
2018-07-30T03:37:28.322Z,19.80
2018-07-30T03:38:31.684Z,19.70
2018-07-30T03:39:35.004Z,19.80
2018-07-30T03:40:38.361Z,19.70
2018-07-30T03:41:41.735Z,19.70
2018-07-30T03:42:45.059Z,19.70
2018-07-30T03:43:48.404Z,19.60
2018-07-30T03:44:51.718Z,19.60
2018-07-30T03:45:55.080Z,19.50
2018-07-30T03:46:58.424Z,19.50
2018-07-30T03:48:01.757Z,19.40
2018-07-30T03:49:05.154Z,19.40
2018-07-30T03:50:08.492Z,19.40
2018-07-30T03:51:11.920Z,19.40
2018-07-30T03:52:15.245Z,19.40
2018-07-30T03:53:18.585Z,19.40
2018-07-30T03:54:21.915Z,19.40
2018-07-30T03:55:25.229Z,19.40
2018-07-30T03:56:28.620Z,19.40
2018-07-30T03:57:31.945Z,19.40
2018-07-30T03:58:35.300Z,19.40
2018-07-30T03:59:38.608Z,19.40
2018-07-30T04:00:41.961Z,19.40
2018-07-30T04:01:45.322Z,19.50
2018-07-30T04:02:48.675Z,19.50
2018-07-30T04:03:52.050Z,19.50
2018-07-30T04:04:55.441Z,19.50
2018-07-30T04:05:58.875Z,19.50
2018-07-30T04:07:02.200Z,19.50
2018-07-30T04:08:05.524Z,19.40
2018-07-30T04:09:09.106Z,19.50
2018-07-30T04:10:12.458Z,19.50
2018-07-30T04:11:15.791Z,19.50
2018-07-30T04:12:19.127Z,19.50
2018-07-30T04:13:22.430Z,19.50
2018-07-30T04:14:25.755Z,19.50
2018-07-30T04:15:29.146Z,19.50
2018-07-30T04:16:36.687Z,19.50
2018-07-30T04:17:40.000Z,19.50
2018-07-30T04:18:43.311Z,19.50
2018-07-30T04:19:46.626Z,19.60
2018-07-30T04:20:49.985Z,19.60
2018-07-30T04:21:54.691Z,19.50
2018-07-30T04:22:58.075Z,19.60
2018-07-30T04:24:01.400Z,19.40
2018-07-30T04:25:05.136Z,19.40
2018-07-30T04:26:08.507Z,19.40
2018-07-30T04:27:11.851Z,19.50
2018-07-30T04:28:15.158Z,19.50
2018-07-30T04:29:18.496Z,19.50
2018-07-30T04:30:21.815Z,19.50
2018-07-30T04:31:25.213Z,19.50
2018-07-30T04:32:28.540Z,19.50
2018-07-30T04:33:31.847Z,19.40
2018-07-30T04:34:35.165Z,19.50
2018-07-30T04:35:38.482Z,19.50
2018-07-30T04:36:41.810Z,19.50
2018-07-30T04:37:45.139Z,19.50
2018-07-30T04:38:48.500Z,19.60
2018-07-30T04:39:51.815Z,19.60
2018-07-30T04:40:55.184Z,19.60
2018-07-30T04:41:58.570Z,19.70
2018-07-30T04:43:02.174Z,19.80
2018-07-30T04:44:05.646Z,19.80
2018-07-30T04:45:15.695Z,19.80
2018-07-30T04:46:19.095Z,19.90
2018-07-30T04:47:22.443Z,19.90
2018-07-30T04:48:25.774Z,19.90
2018-07-30T04:49:29.122Z,19.90
2018-07-30T04:50:32.504Z,19.80
2018-07-30T04:51:36.653Z,19.80
2018-07-30T04:52:40.014Z,19.80
2018-07-30T04:53:43.373Z,19.80
2018-07-30T04:54:46.698Z,19.80
2018-07-30T04:55:50.049Z,19.90
2018-07-30T04:56:53.427Z,19.80
2018-07-30T04:57:56.810Z,19.80
2018-07-30T04:59:00.159Z,19.90
2018-07-30T05:00:03.567Z,19.90
2018-07-30T05:01:06.916Z,19.90
2018-07-30T05:02:10.305Z,20.00
2018-07-30T05:04:16.722Z,20.10
2018-07-30T05:05:20.099Z,20.20
2018-07-30T05:06:23.440Z,20.20
2018-07-30T05:07:26.807Z,20.20
2018-07-30T05:08:30.175Z,20.20
2018-07-30T05:09:33.504Z,20.30
2018-07-30T05:10:36.826Z,20.30
2018-07-30T05:11:40.155Z,20.40
2018-07-30T05:12:43.535Z,20.50
2018-07-30T05:13:47.475Z,20.50
2018-07-30T05:14:50.879Z,20.50
2018-07-30T05:15:54.249Z,20.40
2018-07-30T05:16:57.578Z,20.50
2018-07-30T05:18:00.890Z,20.40
2018-07-30T05:19:04.239Z,20.50
2018-07-30T05:20:07.586Z,20.50
2018-07-30T05:21:11.279Z,20.60
2018-07-30T05:22:14.652Z,20.60
2018-07-30T05:23:17.999Z,20.70
2018-07-30T05:24:21.469Z,20.70
2018-07-30T05:25:24.835Z,20.80
2018-07-30T05:26:28.182Z,20.90
2018-07-30T05:27:31.519Z,20.90
2018-07-30T05:28:34.859Z,20.90
2018-07-30T05:29:38.232Z,20.90
2018-07-30T05:30:41.591Z,21.00
2018-07-30T05:31:44.991Z,20.90
2018-07-30T05:32:48.280Z,20.80
2018-07-30T05:33:51.778Z,20.70
2018-07-30T05:34:55.130Z,20.50
2018-07-30T05:35:58.500Z,20.50
2018-07-30T05:37:01.840Z,20.60
2018-07-30T05:38:05.346Z,20.60
2018-07-30T05:39:10.009Z,20.70
2018-07-30T05:40:13.309Z,20.80
2018-07-30T05:41:16.650Z,20.80
2018-07-30T05:42:19.975Z,21.00
2018-07-30T05:43:23.303Z,21.00
2018-07-30T05:44:26.672Z,21.10
2018-07-30T05:45:29.987Z,21.10
2018-07-30T05:46:33.310Z,21.20
2018-07-30T05:47:36.630Z,21.30
2018-07-30T05:48:39.978Z,21.30
2018-07-30T05:49:43.319Z,21.30
2018-07-30T05:50:46.678Z,21.30
2018-07-30T05:51:50.011Z,21.40
2018-07-30T05:52:53.463Z,21.40
2018-07-30T05:53:56.786Z,21.50
2018-07-30T05:55:00.133Z,21.50
2018-07-30T05:56:03.691Z,21.60
2018-07-30T05:57:07.090Z,21.60
2018-07-30T05:58:10.431Z,21.60
2018-07-30T05:59:13.746Z,21.70
2018-07-30T06:00:17.123Z,21.60
2018-07-30T06:01:20.464Z,21.70
2018-07-30T06:02:23.837Z,21.70
2018-07-30T06:03:27.180Z,21.80
2018-07-30T06:04:30.552Z,21.80
2018-07-30T06:05:33.931Z,21.90
2018-07-30T06:06:37.231Z,22.00
2018-07-30T06:07:40.658Z,22.00
2018-07-30T06:08:43.994Z,22.00
2018-07-30T06:09:47.297Z,22.00
2018-07-30T06:10:50.629Z,21.90
2018-07-30T06:11:53.971Z,22.00
2018-07-30T06:12:57.334Z,22.00
2018-07-30T06:14:00.680Z,22.00
2018-07-30T06:15:04.688Z,22.00
2018-07-30T06:16:08.064Z,22.10
2018-07-30T06:17:11.468Z,22.10
2018-07-30T06:18:14.822Z,22.20
2018-07-30T06:19:18.127Z,22.20
2018-07-30T06:20:21.475Z,22.20
2018-07-30T06:21:24.886Z,22.20
2018-07-30T06:22:28.266Z,22.20
2018-07-30T06:23:31.623Z,22.20
2018-07-30T06:24:34.968Z,22.30
2018-07-30T06:25:38.307Z,22.30
2018-07-30T06:26:41.634Z,22.40
2018-07-30T06:27:44.980Z,22.50
2018-07-30T06:28:48.350Z,22.50
2018-07-30T06:29:51.691Z,22.60
2018-07-30T06:30:55.044Z,22.60
2018-07-30T06:31:58.367Z,22.60
2018-07-30T06:33:01.739Z,22.70
2018-07-30T06:34:05.075Z,22.60
2018-07-30T06:35:08.902Z,22.70
2018-07-30T06:36:12.246Z,22.60
2018-07-30T06:37:16.096Z,22.60
2018-07-30T06:38:19.461Z,22.60
2018-07-30T06:39:23.027Z,22.70
2018-07-30T06:40:26.354Z,22.70
2018-07-30T06:41:29.694Z,22.70
2018-07-30T06:42:33.055Z,22.80
2018-07-30T06:43:36.367Z,22.80
2018-07-30T06:44:39.722Z,22.90
2018-07-30T06:45:43.037Z,22.90
2018-07-30T06:46:46.368Z,22.90
2018-07-30T06:47:49.714Z,22.90
2018-07-30T06:48:53.627Z,22.90
2018-07-30T06:49:56.967Z,22.90
2018-07-30T06:51:00.314Z,23.00
2018-07-30T06:52:03.682Z,22.90
2018-07-30T06:53:07.084Z,22.80
2018-07-30T06:54:10.434Z,22.70
2018-07-30T06:55:13.762Z,22.70
2018-07-30T06:56:17.115Z,22.70
2018-07-30T06:57:20.464Z,22.70
2018-07-30T06:58:23.821Z,22.70
2018-07-30T06:59:27.136Z,22.70
2018-07-30T07:00:30.543Z,22.80
2018-07-30T07:01:33.865Z,22.80
2018-07-30T07:02:37.271Z,22.90
2018-07-30T07:03:40.611Z,23.00
2018-07-30T07:04:43.931Z,23.10
2018-07-30T07:05:47.282Z,23.20
2018-07-30T07:06:50.680Z,23.30
2018-07-30T07:07:54.025Z,23.30
2018-07-30T07:08:57.391Z,23.40
2018-07-30T07:10:00.708Z,23.40
2018-07-30T07:11:04.051Z,23.50
2018-07-30T07:12:07.407Z,23.50
2018-07-30T07:13:10.773Z,23.60
2018-07-30T07:14:14.123Z,23.60
2018-07-30T07:15:17.482Z,23.60
2018-07-30T07:16:20.814Z,23.70
2018-07-30T07:17:24.160Z,23.70
2018-07-30T07:18:27.483Z,23.80
2018-07-30T07:19:30.814Z,23.80
2018-07-30T07:20:34.189Z,23.90
2018-07-30T07:21:37.581Z,23.90
2018-07-30T07:22:40.942Z,23.90
2018-07-30T07:23:44.321Z,24.00
2018-07-30T07:24:47.713Z,23.90
2018-07-30T07:25:51.099Z,23.90
2018-07-30T07:26:54.471Z,24.00
2018-07-30T07:27:57.914Z,24.00
2018-07-30T07:29:01.227Z,24.10
2018-07-30T07:30:06.003Z,24.30
2018-07-30T07:31:09.306Z,24.40
2018-07-30T07:32:12.660Z,24.40
2018-07-30T07:33:16.001Z,24.40
2018-07-30T07:34:19.417Z,24.50
2018-07-30T07:35:22.767Z,24.50
2018-07-30T07:36:26.093Z,24.70
2018-07-30T07:37:29.411Z,24.80
2018-07-30T07:38:32.755Z,24.90
2018-07-30T07:39:36.132Z,25.00
2018-07-30T07:40:39.463Z,25.10
2018-07-30T07:41:42.794Z,25.10
2018-07-30T07:42:46.148Z,25.20
2018-07-30T07:43:49.488Z,25.20
2018-07-30T07:44:52.848Z,25.20
2018-07-30T07:45:56.241Z,25.30
2018-07-30T07:46:59.527Z,25.40
2018-07-30T07:48:02.883Z,25.50
2018-07-30T07:49:06.229Z,25.60
2018-07-30T07:50:09.765Z,25.70
2018-07-30T07:51:13.030Z,25.70
2018-07-30T07:52:16.367Z,25.60
2018-07-30T07:53:19.758Z,25.60
2018-07-30T07:54:23.124Z,25.70
2018-07-30T07:55:26.456Z,25.80
2018-07-30T07:56:29.791Z,25.90
2018-07-30T07:57:33.137Z,26.00
2018-07-30T07:58:36.516Z,26.10
2018-07-30T07:59:39.846Z,26.20
2018-07-30T08:00:43.193Z,26.30
2018-07-30T08:01:46.531Z,26.30
2018-07-30T08:02:49.938Z,26.50
2018-07-30T08:03:53.336Z,26.60
2018-07-30T08:04:56.612Z,26.60
2018-07-30T08:05:59.940Z,26.60
2018-07-30T08:07:03.259Z,26.70
2018-07-30T08:08:06.635Z,26.60
2018-07-30T08:09:11.042Z,26.60
2018-07-30T08:10:14.380Z,26.60
2018-07-30T08:11:17.689Z,26.70
2018-07-30T08:12:21.028Z,26.80
2018-07-30T08:13:24.410Z,26.80
2018-07-30T08:14:27.732Z,26.70
2018-07-30T08:15:31.080Z,26.70
2018-07-30T08:16:34.461Z,26.70
2018-07-30T08:17:37.881Z,26.60
2018-07-30T08:18:41.214Z,26.60
2018-07-30T08:19:44.556Z,26.60
2018-07-30T08:20:47.884Z,26.70
2018-07-30T08:21:51.240Z,26.80
2018-07-30T08:22:54.578Z,26.80
2018-07-30T08:23:57.951Z,26.70
2018-07-30T08:25:01.285Z,26.80
2018-07-30T08:26:04.653Z,27.00
2018-07-30T08:27:07.963Z,27.10
2018-07-30T08:28:11.288Z,27.20
2018-07-30T08:29:14.590Z,27.30
2018-07-30T08:30:17.950Z,27.50
2018-07-30T08:31:21.327Z,27.60
2018-07-30T08:32:24.656Z,27.80
2018-07-30T08:33:28.005Z,28.00
2018-07-30T08:34:31.379Z,28.00
2018-07-30T08:35:34.720Z,28.20
2018-07-30T08:36:38.071Z,28.30
2018-07-30T08:37:41.395Z,28.40
2018-07-30T08:38:44.763Z,28.50
2018-07-30T08:39:48.096Z,28.50
2018-07-30T08:40:51.432Z,28.70
2018-07-30T08:42:57.877Z,28.80
2018-07-30T08:44:01.190Z,28.80
2018-07-30T08:45:05.079Z,28.90
2018-07-30T08:46:08.427Z,29.00
2018-07-30T08:47:11.819Z,29.10
2018-07-30T08:48:15.219Z,29.20
2018-07-30T08:49:18.551Z,29.20
2018-07-30T08:50:21.870Z,29.20
2018-07-30T08:51:25.199Z,29.30
2018-07-30T08:52:28.531Z,29.30
2018-07-30T08:53:31.879Z,29.30
2018-07-30T08:54:35.198Z,29.40
2018-07-30T08:55:38.503Z,29.50
2018-07-30T08:56:41.855Z,29.60
2018-07-30T08:57:45.177Z,29.60
2018-07-30T08:58:48.600Z,29.70
2018-07-30T08:59:52.057Z,29.80
2018-07-30T09:00:55.386Z,29.80
2018-07-30T09:01:58.707Z,29.80
2018-07-30T09:03:02.046Z,29.90
2018-07-30T09:04:05.454Z,29.80
2018-07-30T09:05:09.299Z,29.90
2018-07-30T09:06:12.691Z,29.80
2018-07-30T09:07:16.068Z,29.90
2018-07-30T09:08:19.394Z,30.00
2018-07-30T09:09:22.791Z,30.00
2018-07-30T09:10:26.126Z,30.10
2018-07-30T09:11:29.471Z,30.20
2018-07-30T09:12:32.873Z,30.30
2018-07-30T09:13:36.136Z,30.40
2018-07-30T09:14:39.784Z,30.50
2018-07-30T09:15:43.135Z,30.70
2018-07-30T09:16:46.446Z,30.90
2018-07-30T09:17:49.759Z,31.00
2018-07-30T09:18:53.106Z,31.10
2018-07-30T09:19:56.485Z,31.30
2018-07-30T09:20:59.847Z,31.30
2018-07-30T09:22:03.179Z,31.30
2018-07-30T09:23:06.543Z,31.30
2018-07-30T09:24:09.866Z,31.30
2018-07-30T09:25:13.236Z,31.40
2018-07-30T09:26:16.550Z,31.40
2018-07-30T09:27:19.890Z,31.50
2018-07-30T09:28:23.286Z,31.60
2018-07-30T09:29:26.650Z,31.70
2018-07-30T09:30:30.027Z,31.70
2018-07-30T09:31:33.350Z,31.90
2018-07-30T09:32:36.750Z,32.00
2018-07-30T09:33:40.056Z,32.00
2018-07-30T09:34:43.399Z,32.10
2018-07-30T09:35:46.709Z,32.00
2018-07-30T09:36:50.074Z,32.00
2018-07-30T09:37:53.487Z,32.00
2018-07-30T09:38:56.816Z,32.00
2018-07-30T09:40:00.138Z,32.10
2018-07-30T09:41:03.468Z,32.10
2018-07-30T09:42:06.975Z,32.00
2018-07-30T09:43:10.364Z,32.00
2018-07-30T09:44:13.682Z,32.00
2018-07-30T09:45:17.017Z,32.00
2018-07-30T09:46:20.325Z,32.00
2018-07-30T09:47:23.650Z,32.00
2018-07-30T09:48:26.991Z,32.10
2018-07-30T09:49:30.370Z,32.30
2018-07-30T09:50:33.720Z,32.40
2018-07-30T09:51:37.099Z,32.50
2018-07-30T09:52:40.417Z,32.60
2018-07-30T09:53:43.726Z,32.60
2018-07-30T09:54:47.115Z,32.70
2018-07-30T09:55:50.430Z,32.60
2018-07-30T09:56:53.766Z,32.50
2018-07-30T09:57:57.071Z,32.30
2018-07-30T09:59:00.388Z,32.40
2018-07-30T10:00:03.807Z,32.40
2018-07-30T10:01:14.240Z,32.40
2018-07-30T10:02:17.549Z,32.40
2018-07-30T10:03:20.902Z,32.40
2018-07-30T10:04:24.214Z,32.60
2018-07-30T10:05:27.567Z,32.70
2018-07-30T10:06:30.887Z,32.90
2018-07-30T10:07:34.298Z,33.00
2018-07-30T10:08:37.650Z,33.00
2018-07-30T10:09:40.982Z,33.10
2018-07-30T10:10:44.330Z,33.20
2018-07-30T10:11:47.709Z,33.20
2018-07-30T10:12:51.062Z,33.20
2018-07-30T10:13:54.470Z,33.20
2018-07-30T10:14:57.785Z,33.20
2018-07-30T10:16:01.109Z,33.20
2018-07-30T10:17:04.489Z,32.90
2018-07-30T10:18:07.905Z,32.90
2018-07-30T10:19:11.189Z,32.90
2018-07-30T10:20:14.516Z,32.90
2018-07-30T10:21:17.841Z,33.00
2018-07-30T10:22:21.166Z,33.10
2018-07-30T10:23:24.512Z,33.30
2018-07-30T10:24:27.866Z,33.40
2018-07-30T10:25:31.199Z,33.40
2018-07-30T10:26:34.514Z,33.60
2018-07-30T10:27:37.847Z,33.80
2018-07-30T10:28:41.184Z,33.90
2018-07-30T10:29:44.547Z,33.90
2018-07-30T10:30:48.063Z,33.70
2018-07-30T10:31:51.333Z,33.40
2018-07-30T10:32:54.700Z,33.50
2018-07-30T10:33:58.047Z,33.50
2018-07-30T10:35:01.358Z,33.60
2018-07-30T10:36:04.690Z,33.60
2018-07-30T10:37:08.047Z,33.60
2018-07-30T10:38:11.372Z,33.60
2018-07-30T10:40:17.760Z,33.80
2018-07-30T10:41:21.140Z,33.60
2018-07-30T10:42:24.507Z,33.50
2018-07-30T10:43:27.837Z,33.40
2018-07-30T10:44:31.161Z,33.60
2018-07-30T10:45:34.506Z,33.80
2018-07-30T10:46:37.867Z,34.00
2018-07-30T10:47:41.229Z,34.30
2018-07-30T10:48:44.566Z,34.40
2018-07-30T10:49:48.047Z,34.50
2018-07-30T10:50:51.419Z,34.40
2018-07-30T10:51:54.760Z,34.40
2018-07-30T10:52:58.151Z,34.40
2018-07-30T10:54:01.499Z,34.30
2018-07-30T10:55:04.877Z,34.30
2018-07-30T10:56:08.223Z,34.30
2018-07-30T10:57:11.627Z,34.40
2018-07-30T10:58:14.976Z,34.30
2018-07-30T10:59:18.281Z,34.40
2018-07-30T11:00:21.676Z,34.40
2018-07-30T11:01:25.027Z,34.40
2018-07-30T11:02:28.346Z,34.50
2018-07-30T11:03:31.674Z,34.70
2018-07-30T11:04:39.180Z,34.80
2018-07-30T11:05:42.536Z,34.90
2018-07-30T11:06:45.895Z,34.90
2018-07-30T11:07:49.282Z,34.70
2018-07-30T11:08:52.555Z,34.70
2018-07-30T11:09:55.887Z,34.90
2018-07-30T11:10:59.256Z,34.90
2018-07-30T11:12:02.797Z,35.00
2018-07-30T11:13:06.220Z,35.20
2018-07-30T11:14:09.552Z,35.30
2018-07-30T11:15:12.954Z,35.40
2018-07-30T11:16:16.295Z,35.40
2018-07-30T11:17:19.639Z,35.40
2018-07-30T11:18:22.965Z,34.90
2018-07-30T11:19:26.327Z,34.70
2018-07-30T11:20:29.638Z,34.40
2018-07-30T11:21:32.971Z,34.30
2018-07-30T11:22:36.315Z,34.20
2018-07-30T11:23:39.633Z,34.00
2018-07-30T11:24:43.015Z,33.90
2018-07-30T11:25:46.351Z,33.80
2018-07-30T11:26:56.212Z,33.80
2018-07-30T11:27:59.609Z,33.70
2018-07-30T11:29:02.907Z,33.70
2018-07-30T11:30:06.555Z,33.70
2018-07-30T11:31:09.870Z,33.70
2018-07-30T11:32:13.181Z,33.90
2018-07-30T11:33:16.539Z,33.90
2018-07-30T11:34:19.858Z,34.00
2018-07-30T11:35:23.259Z,34.30
2018-07-30T11:36:26.587Z,34.50
2018-07-30T11:37:29.919Z,34.70
2018-07-30T11:38:33.358Z,34.70
2018-07-30T11:39:36.783Z,34.80
2018-07-30T11:40:40.111Z,34.90
2018-07-30T11:41:43.507Z,35.00
2018-07-30T11:42:46.866Z,34.90
2018-07-30T11:43:50.158Z,34.90
2018-07-30T11:44:53.559Z,34.90
2018-07-30T11:45:56.858Z,34.90
2018-07-30T11:47:00.198Z,34.90
2018-07-30T11:48:03.544Z,35.10
2018-07-30T11:49:06.880Z,35.00
2018-07-30T11:50:10.253Z,34.90
2018-07-30T11:51:13.578Z,34.90
2018-07-30T11:52:16.915Z,34.80
2018-07-30T11:53:20.238Z,34.70
2018-07-30T11:54:23.642Z,34.70
2018-07-30T11:55:27.367Z,34.50
2018-07-30T11:56:30.799Z,34.40
2018-07-30T11:57:34.118Z,34.50
2018-07-30T11:59:40.530Z,34.70
2018-07-30T12:00:43.932Z,34.70
2018-07-30T12:01:47.345Z,34.70
2018-07-30T12:02:50.691Z,34.70
2018-07-30T12:03:54.352Z,34.90
2018-07-30T12:04:57.677Z,35.00
2018-07-30T12:06:01.040Z,35.00
2018-07-30T12:07:04.413Z,34.90
2018-07-30T12:08:07.762Z,35.00
2018-07-30T12:09:11.109Z,35.10
2018-07-30T12:10:14.509Z,35.30
2018-07-30T12:11:17.839Z,35.40
2018-07-30T12:12:21.187Z,35.30
2018-07-30T12:13:24.562Z,35.30
2018-07-30T12:14:27.846Z,35.40
2018-07-30T12:15:31.251Z,35.40
2018-07-30T12:16:34.602Z,35.70
2018-07-30T12:17:37.922Z,35.80
2018-07-30T12:18:41.255Z,35.80
2018-07-30T12:19:44.570Z,36.00
2018-07-30T12:20:47.930Z,36.30
2018-07-30T12:21:51.396Z,36.40
2018-07-30T12:22:54.710Z,36.20
2018-07-30T12:23:58.042Z,36.10
2018-07-30T12:25:01.387Z,35.80
2018-07-30T12:26:04.730Z,35.60
2018-07-30T12:27:08.080Z,35.50
2018-07-30T12:28:11.447Z,35.60
2018-07-30T12:29:14.885Z,35.60
2018-07-30T12:30:18.192Z,35.50
2018-07-30T12:31:21.491Z,35.70
2018-07-30T12:32:24.831Z,35.70
2018-07-30T12:33:28.199Z,35.70
2018-07-30T12:34:31.522Z,35.90
2018-07-30T12:35:34.836Z,35.90
2018-07-30T12:36:38.230Z,35.90
2018-07-30T12:37:41.574Z,35.90
2018-07-30T12:38:44.908Z,36.10
2018-07-30T12:39:48.334Z,36.10
2018-07-30T12:40:51.671Z,36.00
2018-07-30T12:41:55.145Z,36.00
2018-07-30T12:42:58.494Z,36.00
2018-07-30T12:44:01.811Z,35.90
2018-07-30T12:45:05.397Z,35.80
2018-07-30T12:46:08.694Z,35.70
2018-07-30T12:47:12.054Z,35.70
2018-07-30T12:48:15.519Z,35.90
2018-07-30T12:50:21.943Z,36.10
2018-07-30T12:51:25.286Z,36.20
2018-07-30T12:52:28.657Z,36.20
2018-07-30T12:53:31.982Z,36.40
2018-07-30T12:54:35.292Z,36.50
2018-07-30T12:55:38.881Z,36.60
2018-07-30T12:56:42.199Z,36.90
2018-07-30T12:57:45.547Z,37.00
2018-07-30T12:58:48.898Z,37.00
2018-07-30T12:59:52.223Z,36.90
2018-07-30T13:00:55.582Z,37.00
2018-07-30T13:01:58.898Z,37.00
2018-07-30T13:03:02.527Z,36.90
2018-07-30T13:04:05.781Z,36.90
2018-07-30T13:05:09.132Z,36.70
2018-07-30T13:06:12.463Z,36.50
2018-07-30T13:07:15.776Z,36.40
2018-07-30T13:08:19.173Z,36.20
2018-07-30T13:09:22.448Z,36.00
2018-07-30T13:10:25.760Z,35.90
2018-07-30T13:11:29.082Z,35.80
2018-07-30T13:12:32.415Z,35.70
2018-07-30T13:13:35.814Z,35.60
2018-07-30T13:14:39.105Z,35.40
2018-07-30T13:15:42.414Z,35.10
2018-07-30T13:16:45.738Z,34.80
2018-07-30T13:17:49.068Z,34.80
2018-07-30T13:18:52.443Z,34.70
2018-07-30T13:19:55.754Z,34.60
2018-07-30T13:20:59.115Z,34.50
2018-07-30T13:22:02.395Z,34.40
2018-07-30T13:23:05.715Z,34.30
2018-07-30T13:24:09.080Z,34.30
2018-07-30T13:25:12.421Z,34.30
2018-07-30T13:26:15.865Z,34.30
2018-07-30T13:27:19.154Z,34.20
2018-07-30T13:28:22.461Z,34.30
2018-07-30T13:29:25.823Z,34.60
2018-07-30T13:30:29.164Z,34.80
2018-07-30T13:31:32.487Z,35.00
2018-07-30T13:32:35.906Z,35.20
2018-07-30T13:33:39.183Z,35.20
2018-07-30T13:34:42.594Z,35.30
2018-07-30T13:35:45.914Z,35.30
2018-07-30T13:36:49.275Z,35.50
2018-07-30T13:37:52.602Z,35.70
2018-07-30T13:38:55.906Z,35.80
2018-07-30T13:39:59.240Z,36.00
2018-07-30T13:41:02.579Z,36.10
2018-07-30T13:42:05.959Z,36.40
2018-07-30T13:43:09.306Z,36.70